Time;durP1;ratioP1;P1;durP2;ratioP2;P2;SDS_P1;SDS_P2;PMS_P1;PMS_P2;Temp;Humidity;BMP_temperature;BMP_pressure;BME280_temperature;BME280_humidity;BME280_pressure;Samples;Min_cycle;Max_cycle;Signal;HPM_P1;HPM_P2
2024/04/07 00:00:22;;;;;;;0.68;0.68;;;;;;;;;;6266679;28;20033;-78
2024/04/07 00:03:22;;;;;;;1.00;0.80;;;;;;;;;;6251887;28;20506;-79
2024/04/07 00:06:23;;;;;;;1.00;0.90;;;;;;;;;;6263597;28;20029;-78
2024/04/07 00:09:23;;;;;;;1.33;0.83;;;;;;;;;;6251457;28;20097;-78
2024/04/07 00:12:23;;;;;;;2.15;0.80;;;;;;;;;;6270237;28;20029;-78
2024/04/07 00:15:24;;;;;;;1.00;0.90;;;;;;;;;;6263213;28;20043;-77
2024/04/07 00:18:24;;;;;;;2.50;1.00;;;;;;;;;;6263998;28;20116;-78
2024/04/07 00:21:27;;;;;;;1.10;0.80;;;;;;;;;;6253286;28;20101;-78
2024/04/07 00:24:27;;;;;;;0.73;0.65;;;;;;;;;;6253622;28;20013;-78
2024/04/07 00:27:27;;;;;;;1.30;0.90;;;;;;;;;;6264665;28;20017;-78
2024/04/07 00:30:27;;;;;;;0.70;0.60;;;;;;;;;;6266871;28;20098;-78
2024/04/07 00:33:28;;;;;;;1.33;0.80;;;;;;;;;;6262868;28;20025;-79
2024/04/07 00:36:28;;;;;;;1.10;0.82;;;;;;;;;;6265651;28;20057;-79
2024/04/07 00:39:28;;;;;;;0.67;0.67;;;;;;;;;;6240277;28;20390;-78
2024/04/07 00:42:29;;;;;;;2.03;0.80;;;;;;;;;;6240041;28;20485;-77
2024/04/07 00:45:29;;;;;;;0.95;0.85;;;;;;;;;;6273071;28;20457;-77
2024/04/07 00:48:30;;;;;;;0.70;0.70;;;;;;;;;;6258422;28;20417;-79
2024/04/07 00:51:30;;;;;;;2.25;0.68;;;;;;;;;;6259009;28;20384;-78
2024/04/07 00:54:30;;;;;;;0.85;0.70;;;;;;;;;;6258370;28;20068;-77
2024/04/07 00:57:31;;;;;;;0.80;0.77;;;;;;;;;;6264360;28;20024;-78
2024/04/07 01:00:31;;;;;;;0.90;0.65;;;;;;;;;;6263100;28;20017;-79
2024/04/07 01:03:32;;;;;;;1.13;0.70;;;;;;;;;;6261765;28;20461;-79
2024/04/07 01:06:33;;;;;;;0.67;0.67;;;;;;;;;;6250144;28;20497;-79
2024/04/07 01:09:33;;;;;;;1.42;1.00;;;;;;;;;;6259710;28;20451;-79
2024/04/07 01:12:34;;;;;;;1.25;0.75;;;;;;;;;;6271261;28;20481;-79
2024/04/07 01:15:34;;;;;;;1.00;0.75;;;;;;;;;;6260067;28;20106;-80
2024/04/07 01:18:34;;;;;;;1.80;0.95;;;;;;;;;;6254728;28;20021;-78
2024/04/07 01:21:35;;;;;;;1.93;0.70;;;;;;;;;;6258350;28;20037;-78
2024/04/07 01:24:35;;;;;;;1.40;0.93;;;;;;;;;;6263161;28;20025;-78
2024/04/07 01:27:35;;;;;;;0.67;0.50;;;;;;;;;;6263114;28;20036;-78
2024/04/07 01:30:36;;;;;;;1.70;0.70;;;;;;;;;;6271908;28;20025;-79
2024/04/07 01:33:36;;;;;;;1.05;0.80;;;;;;;;;;6262231;28;20033;-79
2024/04/07 01:36:37;;;;;;;1.10;0.70;;;;;;;;;;6258657;28;20049;-78
2024/04/07 01:39:37;;;;;;;0.93;0.60;;;;;;;;;;6263030;28;20115;-83
2024/04/07 01:42:38;;;;;;;1.40;0.93;;;;;;;;;;6257728;28;20107;-78
2024/04/07 01:45:38;;;;;;;0.75;0.50;;;;;;;;;;6261227;28;20031;-78
2024/04/07 01:48:40;;;;;;;1.23;0.73;;;;;;;;;;6265035;28;20401;-78
2024/04/07 01:51:40;;;;;;;1.15;0.80;;;;;;;;;;6258822;28;20016;-78
2024/04/07 01:54:41;;;;;;;0.97;0.60;;;;;;;;;;6261998;28;20135;-78
2024/04/07 01:57:41;;;;;;;1.30;0.70;;;;;;;;;;6244139;28;20076;-82
2024/04/07 02:00:41;;;;;;;0.80;0.70;;;;;;;;;;6247430;28;20033;-77
2024/04/07 02:03:41;;;;;;;1.10;0.70;;;;;;;;;;6269004;28;20032;-78
2024/04/07 02:06:42;;;;;;;2.10;0.80;;;;;;;;;;6262933;28;20032;-78
2024/04/07 02:09:42;;;;;;;0.53;0.53;;;;;;;;;;6267743;28;20013;-77
2024/04/07 02:12:42;;;;;;;0.67;0.60;;;;;;;;;;6263092;28;20029;-77
2024/04/07 02:15:43;;;;;;;0.50;0.50;;;;;;;;;;6263083;28;20086;-78
2024/04/07 02:18:43;;;;;;;1.02;0.65;;;;;;;;;;6260429;28;20021;-77
2024/04/07 02:21:44;;;;;;;0.93;0.70;;;;;;;;;;6260847;28;20542;-77
2024/04/07 02:24:44;;;;;;;1.20;0.70;;;;;;;;;;6261002;28;20469;-77
2024/04/07 02:27:46;;;;;;;1.08;0.70;;;;;;;;;;6264168;28;20466;-78
2024/04/07 02:30:47;;;;;;;0.90;0.60;;;;;;;;;;6258735;28;20458;-77
2024/04/07 02:33:47;;;;;;;1.17;0.73;;;;;;;;;;6255723;28;20045;-78
2024/04/07 02:36:47;;;;;;;1.60;0.67;;;;;;;;;;6268337;28;20047;-79
2024/04/07 02:39:47;;;;;;;1.97;0.77;;;;;;;;;;6254927;28;20488;-77
2024/04/07 02:42:48;;;;;;;0.60;0.60;;;;;;;;;;6258872;28;20455;-76
2024/04/07 02:49:07;;;;;;;1.05;0.80;;;;;;;;;;6262511;28;20482;-78
2024/04/07 02:52:07;;;;;;;0.60;0.40;;;;;;;;;;6259969;28;20032;-76
2024/04/07 02:55:08;;;;;;;0.97;0.60;;;;;;;;;;6260819;28;20032;-78
2024/04/07 02:58:08;;;;;;;0.80;0.60;;;;;;;;;;6260360;28;20066;-78
2024/04/07 03:01:09;;;;;;;0.80;0.70;;;;;;;;;;6253043;28;20017;-78
2024/04/07 03:04:09;;;;;;;0.60;0.60;;;;;;;;;;6263592;28;20041;-78
2024/04/07 03:07:09;;;;;;;0.63;0.60;;;;;;;;;;6250393;28;20028;-78
2024/04/07 03:10:10;;;;;;;0.70;0.70;;;;;;;;;;6257889;28;20036;-78
2024/04/07 03:13:10;;;;;;;;;;;;;;;;;;6263909;28;20409;-78
2024/04/07 03:16:13;;;;;;;0.70;0.60;;;;;;;;;;6258429;28;20400;-78
2024/04/07 03:19:14;;;;;;;1.13;0.45;;;;;;;;;;6267507;28;20381;-78
2024/04/07 03:22:14;;;;;;;0.73;0.55;;;;;;;;;;6244233;28;20037;-78
2024/04/07 03:25:14;;;;;;;0.60;0.60;;;;;;;;;;6254310;28;20036;-77
2024/04/07 03:28:14;;;;;;;0.50;0.50;;;;;;;;;;6258531;28;20032;-77
2024/04/07 03:31:15;;;;;;;1.43;0.60;;;;;;;;;;6251534;28;20032;-77
2024/04/07 03:34:15;;;;;;;0.53;0.53;;;;;;;;;;6272092;28;20032;-77
2024/04/07 03:37:15;;;;;;;0.70;0.57;;;;;;;;;;6262606;28;20045;-77
2024/04/07 03:40:16;;;;;;;2.10;0.67;;;;;;;;;;6261836;28;20424;-77
2024/04/07 03:43:18;;;;;;;1.40;0.80;;;;;;;;;;6249374;28;20462;-77
2024/04/07 03:46:20;;;;;;;1.20;0.98;;;;;;;;;;6268857;28;20120;-77
2024/04/07 03:49:20;;;;;;;;;;;;;;;;;;6264375;28;20021;-80
2024/04/07 03:52:20;;;;;;;1.20;0.63;;;;;;;;;;6252851;28;20451;-79
2024/04/07 03:55:21;;;;;;;1.60;0.93;;;;;;;;;;6259915;28;20029;-77
2024/04/07 03:58:21;;;;;;;0.85;0.82;;;;;;;;;;6265217;28;20474;-77
2024/04/07 04:01:21;;;;;;;1.30;0.90;;;;;;;;;;6273636;28;20025;-78
2024/04/07 04:04:21;;;;;;;0.90;0.77;;;;;;;;;;6253498;28;20134;-77
2024/04/07 04:07:22;;;;;;;0.83;0.73;;;;;;;;;;6265446;28;20025;-77
2024/04/07 04:10:22;;;;;;;1.00;0.80;;;;;;;;;;6255982;28;20092;-77
2024/04/07 04:13:23;;;;;;;0.90;0.73;;;;;;;;;;6255288;28;20465;-78
2024/04/07 04:16:23;;;;;;;;;;;;;;;;;;6265861;28;20068;-78
2024/04/07 04:19:24;;;;;;;1.42;0.68;;;;;;;;;;6249893;28;19910;-81
2024/04/07 04:22:24;;;;;;;0.98;0.77;;;;;;;;;;6257681;28;20474;-81
2024/04/07 04:25:25;;;;;;;1.27;0.83;;;;;;;;;;6252519;28;20083;-82
2024/04/07 04:28:25;;;;;;;0.70;0.70;;;;;;;;;;6263284;28;20029;-81
2024/04/07 04:31:25;;;;;;;1.73;0.90;;;;;;;;;;6266136;28;20032;-81
2024/04/07 04:34:26;;;;;;;1.20;0.90;;;;;;;;;;6255963;28;20037;-81
2024/04/07 04:37:26;;;;;;;1.77;0.80;;;;;;;;;;6269612;28;20540;-81
2024/04/07 04:40:26;;;;;;;1.43;0.77;;;;;;;;;;6260878;28;20472;-83
2024/04/07 04:43:27;;;;;;;0.93;0.60;;;;;;;;;;6251329;28;20481;-80
2024/04/07 04:46:27;;;;;;;0.93;0.70;;;;;;;;;;6252079;28;20493;-80
2024/04/07 04:49:27;;;;;;;0.50;0.50;;;;;;;;;;6253693;28;20478;-80
2024/04/07 04:52:28;;;;;;;0.80;0.80;;;;;;;;;;6263872;28;20481;-83
2024/04/07 04:55:28;;;;;;;0.63;0.60;;;;;;;;;;6265851;28;20486;-81
2024/04/07 04:58:33;;;;;;;1.10;0.70;;;;;;;;;;6261878;28;20029;-81
2024/04/07 05:01:34;;;;;;;1.00;0.70;;;;;;;;;;6258581;28;20028;-81
2024/04/07 05:04:34;;;;;;;1.20;0.77;;;;;;;;;;6250256;28;20029;-80
2024/04/07 05:07:34;;;;;;;1.10;0.60;;;;;;;;;;6263036;28;20526;-80
2024/04/07 05:10:35;;;;;;;0.60;0.60;;;;;;;;;;6260759;28;20029;-82
2024/04/07 05:13:35;;;;;;;0.80;0.73;;;;;;;;;;6242546;28;20025;-81
2024/04/07 05:16:35;;;;;;;0.70;0.70;;;;;;;;;;6262576;28;20064;-81
2024/04/07 05:19:36;;;;;;;0.80;0.70;;;;;;;;;;6255763;28;20391;-82
2024/04/07 05:22:36;;;;;;;1.40;0.83;;;;;;;;;;6259561;28;20390;-82
2024/04/07 05:25:36;;;;;;;5.50;0.90;;;;;;;;;;6271573;28;20025;-81
2024/04/07 05:28:36;;;;;;;1.33;0.93;;;;;;;;;;6254246;28;20021;-80
2024/04/07 05:31:36;;;;;;;1.27;0.70;;;;;;;;;;6246731;28;20029;-80
2024/04/07 05:34:37;;;;;;;1.17;0.87;;;;;;;;;;6252247;28;20034;-81
2024/04/07 05:37:37;;;;;;;0.93;0.70;;;;;;;;;;6266562;28;20102;-81
2024/04/07 05:40:37;;;;;;;0.87;0.77;;;;;;;;;;6233799;28;20033;-81
2024/04/07 05:43:38;;;;;;;1.27;1.00;;;;;;;;;;6227198;28;20296;-81
2024/04/07 05:46:38;;;;;;;1.13;0.90;;;;;;;;;;6232332;28;20124;-82
2024/04/07 05:49:38;;;;;;;1.40;1.00;;;;;;;;;;6228204;28;20014;-81
2024/04/07 05:52:39;;;;;;;1.87;0.87;;;;;;;;;;6230929;28;20025;-79
2024/04/07 05:55:40;;;;;;;2.08;1.20;;;;;;;;;;6235461;28;20025;-82
2024/04/07 05:58:40;;;;;;;1.20;1.00;;;;;;;;;;6228591;28;20216;-82
2024/04/07 06:01:41;;;;;;;1.80;1.10;;;;;;;;;;6241536;28;20402;-83
2024/04/07 06:04:43;;;;;;;3.00;1.27;;;;;;;;;;6232650;28;20033;-82
2024/04/07 06:07:43;;;;;;;2.42;1.20;;;;;;;;;;6239218;28;20028;-82
2024/04/07 06:10:43;;;;;;;1.17;0.80;;;;;;;;;;6227716;28;20052;-83
2024/04/07 06:13:43;;;;;;;2.40;1.03;;;;;;;;;;6226712;28;20363;-81
2024/04/07 06:16:44;;;;;;;0.80;0.80;;;;;;;;;;6229172;28;20413;-81
2024/04/07 06:19:44;;;;;;;1.10;0.90;;;;;;;;;;6237257;28;20033;-81
2024/04/07 06:22:44;;;;;;;2.23;0.90;;;;;;;;;;6226490;28;20051;-81
2024/04/07 06:25:46;;;;;;;1.53;0.80;;;;;;;;;;6224984;28;20025;-78
2024/04/07 06:28:47;;;;;;;1.83;0.95;;;;;;;;;;6228771;28;20037;-79
2024/04/07 06:31:47;;;;;;;1.03;0.90;;;;;;;;;;6226688;28;20022;-79
2024/04/07 06:34:47;;;;;;;4.47;1.33;;;;;;;;;;6232749;28;20037;-79
2024/04/07 06:37:47;;;;;;;1.40;1.07;;;;;;;;;;6230169;28;20049;-79
2024/04/07 06:40:48;;;;;;;1.42;1.20;;;;;;;;;;6233217;28;20034;-78
2024/04/07 06:43:48;;;;;;;1.73;1.30;;;;;;;;;;6239619;28;20051;-80
2024/04/07 06:46:48;;;;;;;;;;;;;;;;;;6232343;28;20021;-80
2024/04/07 06:49:52;;;;;;;1.77;1.23;;;;;;;;;;6226053;28;20000;-78
2024/04/07 06:52:52;;;;;;;1.80;1.42;;;;;;;;;;6239164;28;20025;-78
2024/04/07 06:55:52;;;;;;;2.23;1.63;;;;;;;;;;6236756;28;20477;-79
2024/04/07 06:58:53;;;;;;;;;;;;;;;;;;6227692;28;20470;-75
2024/04/07 07:01:53;;;;;;;1.58;1.20;;;;;;;;;;6230441;28;20071;-77
2024/04/07 07:04:53;;;;;;;;;;;;;;;;;;6233740;28;20520;-79
2024/04/07 07:07:53;;;;;;;1.23;1.08;;;;;;;;;;6244503;28;19915;-77
2024/04/07 07:10:59;;;;;;;;;;;;;;;;;;6256598;28;20112;-78
2024/04/07 07:13:59;;;;;;;1.00;0.90;;;;;;;;;;6258834;28;19916;-77
2024/04/07 07:16:59;;;;;;;;;;;;;;;;;;6239049;28;20021;-78
2024/04/07 07:19:59;;;;;;;0.90;0.82;;;;;;;;;;6233762;28;19909;-80
2024/04/07 07:23:00;;;;;;;;;;;;;;;;;;6234562;28;20025;-77
2024/04/07 07:26:02;;;;;;;1.80;0.93;;;;;;;;;;6230809;28;19910;-77
2024/04/07 07:29:03;;;;;;;1.63;1.30;;;;;;;;;;6233123;28;20029;-77
2024/04/07 07:32:05;;;;;;;;;;;;;;;;;;6225623;28;20060;-77
2024/04/07 07:35:05;;;;;;;0.98;0.90;;;;;;;;;;6225623;28;19971;-77
2024/04/07 07:38:05;;;;;;;;;;;;;;;;;;6229884;28;20069;-77
2024/04/07 07:41:06;;;;;;;1.17;1.00;;;;;;;;;;6225240;28;20430;-77
2024/04/07 07:44:06;;;;;;;1.70;1.35;;;;;;;;;;6233916;28;20153;-77
2024/04/07 07:47:06;;;;;;;1.80;1.17;;;;;;;;;;6255854;28;20030;-77
2024/04/07 07:50:07;;;;;;;1.23;1.10;;;;;;;;;;6224705;28;20113;-81
2024/04/07 07:53:07;;;;;;;1.80;1.40;;;;;;;;;;6237490;28;20091;-79
2024/04/07 07:56:08;;;;;;;2.35;1.40;;;;;;;;;;6237211;28;20116;-78
2024/04/07 07:59:08;;;;;;;1.50;1.40;;;;;;;;;;6242741;28;21001;-78
2024/04/07 08:02:08;;;;;;;2.23;1.47;;;;;;;;;;6235076;28;20478;-79
2024/04/07 08:05:08;;;;;;;1.57;1.30;;;;;;;;;;6233412;28;20814;-81
2024/04/07 08:08:08;;;;;;;1.70;1.60;;;;;;;;;;6236132;28;20768;-80
2024/04/07 08:11:09;;;;;;;1.70;1.23;;;;;;;;;;6251111;28;20751;-82
2024/04/07 08:14:09;;;;;;;1.43;1.33;;;;;;;;;;6251863;28;20759;-76
2024/04/07 08:17:09;;;;;;;1.20;1.10;;;;;;;;;;6247741;28;20791;-75
2024/04/07 08:20:09;;;;;;;2.07;1.30;;;;;;;;;;6242123;28;20782;-77
2024/04/07 08:23:12;;;;;;;1.40;1.20;;;;;;;;;;6253029;28;20744;-76
2024/04/07 08:26:12;;;;;;;2.08;1.25;;;;;;;;;;6251588;28;20334;-75
2024/04/07 08:29:12;;;;;;;1.43;1.33;;;;;;;;;;6242922;28;20502;-76
2024/04/07 08:32:13;;;;;;;1.33;1.00;;;;;;;;;;6241264;28;20788;-77
2024/04/07 08:35:13;;;;;;;2.22;1.23;;;;;;;;;;6237381;28;20030;-77
2024/04/07 08:38:13;;;;;;;0.83;0.83;;;;;;;;;;6245911;28;20444;-76
2024/04/07 08:41:14;;;;;;;2.53;1.17;;;;;;;;;;6243471;28;20276;-77
2024/04/07 08:44:15;;;;;;;1.45;1.13;;;;;;;;;;6249286;28;20021;-76
2024/04/07 08:47:16;;;;;;;1.30;1.13;;;;;;;;;;6251147;28;20048;-79
2024/04/07 08:50:17;;;;;;;1.30;1.15;;;;;;;;;;6248874;28;20021;-76
2024/04/07 08:53:18;;;;;;;1.70;1.27;;;;;;;;;;6249609;28;20076;-75
2024/04/07 08:56:18;;;;;;;1.40;1.10;;;;;;;;;;6250187;28;20477;-75
2024/04/07 08:59:20;;;;;;;1.30;1.20;;;;;;;;;;6250498;28;20035;-79
2024/04/07 09:02:20;;;;;;;1.63;1.15;;;;;;;;;;6247044;28;20272;-84
2024/04/07 09:05:20;;;;;;;1.52;1.20;;;;;;;;;;6247544;28;20049;-84
2024/04/07 09:08:21;;;;;;;3.17;1.30;;;;;;;;;;6249453;28;20026;-80
2024/04/07 09:11:21;;;;;;;1.55;1.40;;;;;;;;;;6255017;28;20027;-80
2024/04/07 09:14:24;;;;;;;1.90;1.27;;;;;;;;;;6249193;28;20481;-80
2024/04/07 09:17:28;;;;;;;1.40;1.30;;;;;;;;;;6240041;28;20026;-82
2024/04/07 09:20:30;;;;;;;1.30;1.20;;;;;;;;;;6248858;28;20109;-80
2024/04/07 09:23:30;;;;;;;1.40;1.15;;;;;;;;;;6245579;28;20022;-81
2024/04/07 09:26:30;;;;;;;1.48;1.33;;;;;;;;;;6250181;28;20032;-81
2024/04/07 09:29:31;;;;;;;1.20;1.08;;;;;;;;;;6249810;28;20374;-77
2024/04/07 09:32:31;;;;;;;2.38;1.27;;;;;;;;;;6246477;28;20242;-85
2024/04/07 09:35:33;;;;;;;1.15;1.05;;;;;;;;;;6247177;28;20386;-82
2024/04/07 09:38:33;;;;;;;1.90;1.40;;;;;;;;;;6247183;28;20386;-79
2024/04/07 09:41:35;;;;;;;1.43;1.23;;;;;;;;;;6248542;28;20040;-79
2024/04/07 09:44:36;;;;;;;1.83;1.30;;;;;;;;;;6247683;28;20787;-77
2024/04/07 09:47:37;;;;;;;1.50;1.30;;;;;;;;;;6247035;28;20021;-77
2024/04/07 09:50:40;;;;;;;1.45;1.17;;;;;;;;;;6246884;28;20536;-83
2024/04/07 09:53:45;;;;;;;1.88;1.55;;;;;;;;;;6246534;28;20533;-78
2024/04/07 09:56:46;;;;;;;1.90;1.45;;;;;;;;;;6249422;28;20033;-81
2024/04/07 09:59:46;;;;;;;2.42;1.30;;;;;;;;;;6246710;28;20489;-81
2024/04/07 10:02:47;;;;;;;1.13;1.02;;;;;;;;;;6244945;28;20053;-82
2024/04/07 10:05:47;;;;;;;1.70;1.13;;;;;;;;;;6233939;28;20042;-80
2024/04/07 10:08:47;;;;;;;1.23;1.13;;;;;;;;;;6246005;28;20573;-80
2024/04/07 10:11:48;;;;;;;1.45;1.30;;;;;;;;;;6249174;28;20712;-82
2024/04/07 10:14:49;;;;;;;1.23;1.13;;;;;;;;;;6246369;28;20030;-77
2024/04/07 10:17:49;;;;;;;2.80;1.33;;;;;;;;;;6248804;28;20026;-75
2024/04/07 10:20:52;;;;;;;1.17;1.07;;;;;;;;;;6251835;28;20272;-74
2024/04/07 10:23:53;;;;;;;1.95;1.33;;;;;;;;;;6252190;28;20260;-74
2024/04/07 10:26:55;;;;;;;1.00;0.90;;;;;;;;;;6249787;28;20041;-74
2024/04/07 10:29:55;;;;;;;1.20;1.10;;;;;;;;;;6245389;28;20470;-73
2024/04/07 10:32:59;;;;;;;2.05;1.05;;;;;;;;;;6246327;28;20048;-73
2024/04/07 10:36:00;;;;;;;2.00;0.98;;;;;;;;;;6246551;28;20453;-74
2024/04/07 10:39:02;;;;;;;1.58;1.08;;;;;;;;;;6247595;28;20087;-74
2024/04/07 10:42:02;;;;;;;1.48;0.98;;;;;;;;;;6245768;28;20044;-73
2024/04/07 10:45:03;;;;;;;1.00;0.88;;;;;;;;;;6234689;28;20034;-74
2024/04/07 10:48:04;;;;;;;1.08;0.98;;;;;;;;;;6236883;28;20033;-74
2024/04/07 10:51:06;;;;;;;2.50;1.05;;;;;;;;;;6246752;28;20028;-74
2024/04/07 10:54:10;;;;;;;1.23;1.13;;;;;;;;;;6248678;28;20025;-74
2024/04/07 10:57:10;;;;;;;2.80;1.20;;;;;;;;;;6253396;28;20108;-76
2024/04/07 11:00:11;;;;;;;2.53;1.30;;;;;;;;;;6260405;28;20466;-76
2024/04/07 11:03:11;;;;;;;1.35;1.00;;;;;;;;;;6266180;28;20041;-76
2024/04/07 11:06:12;;;;;;;1.88;1.00;;;;;;;;;;6254074;28;20086;-77
2024/04/07 11:09:13;;;;;;;1.38;1.13;;;;;;;;;;6260854;28;20033;-76
2024/04/07 11:12:13;;;;;;;1.33;1.10;;;;;;;;;;6266760;28;20393;-76
2024/04/07 11:15:15;;;;;;;2.33;0.88;;;;;;;;;;6257299;28;20033;-74
2024/04/07 11:18:16;;;;;;;1.50;1.10;;;;;;;;;;6257855;28;20053;-74
2024/04/07 11:21:18;;;;;;;1.38;1.10;;;;;;;;;;6262847;28;20454;-76
2024/04/07 11:24:19;;;;;;;1.30;1.20;;;;;;;;;;6261507;28;20119;-76
2024/04/07 11:27:19;;;;;;;0.95;0.95;;;;;;;;;;6267510;28;20029;-78
2024/04/07 11:30:19;;;;;;;1.77;1.00;;;;;;;;;;6261357;28;20044;-79
2024/04/07 11:33:20;;;;;;;1.45;1.10;;;;;;;;;;6256567;28;20259;-80
2024/04/07 11:36:20;;;;;;;3.22;1.27;;;;;;;;;;6252813;28;20555;-79
2024/04/07 11:39:22;;;;;;;1.63;1.27;;;;;;;;;;6260245;28;20029;-80
2024/04/07 11:42:26;;;;;;;1.38;1.13;;;;;;;;;;6256117;28;20036;-78
2024/04/07 11:45:27;;;;;;;1.95;1.35;;;;;;;;;;6258754;28;20049;-78
2024/04/07 11:48:27;;;;;;;1.20;1.05;;;;;;;;;;6258955;28;20699;-78
2024/04/07 11:51:28;;;;;;;1.45;1.08;;;;;;;;;;6269706;28;20069;-78
2024/04/07 11:54:28;;;;;;;1.67;1.15;;;;;;;;;;6257261;28;20068;-78
2024/04/07 11:57:28;;;;;;;1.17;1.07;;;;;;;;;;6272352;28;20112;-78
2024/04/07 12:00:28;;;;;;;1.10;1.00;;;;;;;;;;6264981;28;20132;-78
2024/04/07 12:03:29;;;;;;;1.47;1.17;;;;;;;;;;6270514;28;20335;-77
2024/04/07 12:06:29;;;;;;;2.13;1.50;;;;;;;;;;6257434;28;20108;-78
2024/04/07 12:09:30;;;;;;;1.27;1.13;;;;;;;;;;6265076;28;20105;-78
2024/04/07 12:12:30;;;;;;;1.70;1.50;;;;;;;;;;6272968;28;21589;-78
2024/04/07 12:15:31;;;;;;;1.30;1.05;;;;;;;;;;6268290;28;20037;-78
2024/04/07 12:18:31;;;;;;;2.57;1.10;;;;;;;;;;6259769;28;20133;-78
2024/04/07 12:21:31;;;;;;;1.17;1.00;;;;;;;;;;6260014;28;20375;-78
2024/04/07 12:24:31;;;;;;;1.73;1.00;;;;;;;;;;6260148;28;20294;-78
2024/04/07 12:27:32;;;;;;;2.17;1.00;;;;;;;;;;6269757;28;20967;-78
2024/04/07 12:30:32;;;;;;;0.88;0.80;;;;;;;;;;6266743;28;20493;-78
2024/04/07 12:33:32;;;;;;;2.45;0.85;;;;;;;;;;6266644;28;20498;-78
2024/04/07 12:36:33;;;;;;;1.13;0.90;;;;;;;;;;6262096;28;20052;-78
2024/04/07 12:39:33;;;;;;;2.00;1.20;;;;;;;;;;6259102;28;20275;-78
2024/04/07 12:42:33;;;;;;;1.03;0.97;;;;;;;;;;6260614;28;20032;-78
2024/04/07 12:45:34;;;;;;;1.53;0.90;;;;;;;;;;6263273;28;20043;-78
2024/04/07 12:48:35;;;;;;;0.93;0.77;;;;;;;;;;6257781;28;20402;-79
2024/04/07 12:51:35;;;;;;;0.90;0.90;;;;;;;;;;6260400;28;20035;-78
2024/04/07 12:54:35;;;;;;;1.00;0.90;;;;;;;;;;6253117;28;20049;-79
2024/04/07 12:57:36;;;;;;;1.23;0.87;;;;;;;;;;6245989;28;20287;-78
2024/04/07 13:00:36;;;;;;;1.23;0.80;;;;;;;;;;6260811;28;20108;-79
2024/04/07 13:03:37;;;;;;;0.88;0.82;;;;;;;;;;6264473;28;20080;-79
2024/04/07 13:06:37;;;;;;;1.50;1.20;;;;;;;;;;6260469;28;21224;-79
2024/04/07 13:09:37;;;;;;;1.40;1.10;;;;;;;;;;6259206;28;20799;-79
2024/04/07 13:12:38;;;;;;;2.13;1.23;;;;;;;;;;6269114;28;20379;-79
2024/04/07 13:15:38;;;;;;;2.00;1.30;;;;;;;;;;6255473;28;20291;-79
2024/04/07 13:18:38;;;;;;;1.60;1.10;;;;;;;;;;6263990;28;20263;-79
2024/04/07 13:21:38;;;;;;;1.17;0.90;;;;;;;;;;6269277;28;20119;-79
2024/04/07 13:24:39;;;;;;;1.20;1.07;;;;;;;;;;6266528;28;20844;-79
2024/04/07 13:27:39;;;;;;;1.43;0.93;;;;;;;;;;6262549;28;20553;-79
2024/04/07 13:30:39;;;;;;;1.17;0.83;;;;;;;;;;6267400;28;20530;-79
2024/04/07 13:33:39;;;;;;;1.47;1.00;;;;;;;;;;6259775;28;20525;-79
2024/04/07 13:36:39;;;;;;;0.93;0.90;;;;;;;;;;6263160;28;20577;-79
2024/04/07 13:39:40;;;;;;;1.50;1.00;;;;;;;;;;6269778;28;20694;-79
2024/04/07 13:42:41;;;;;;;1.23;1.00;;;;;;;;;;6259577;28;20635;-79
2024/04/07 13:45:41;;;;;;;1.48;0.90;;;;;;;;;;6252486;28;20276;-79
2024/04/07 13:48:42;;;;;;;1.50;1.03;;;;;;;;;;6268534;28;20033;-76
2024/04/07 13:51:42;;;;;;;1.30;0.87;;;;;;;;;;6246935;28;20087;-75
2024/04/07 13:54:42;;;;;;;1.20;0.90;;;;;;;;;;6255206;28;20043;-75
2024/04/07 13:57:43;;;;;;;1.27;0.80;;;;;;;;;;6269612;28;20033;-75
2024/04/07 14:00:44;;;;;;;1.00;0.90;;;;;;;;;;6263072;28;20267;-75
2024/04/07 14:03:46;;;;;;;0.95;0.85;;;;;;;;;;6268080;28;20021;-75
2024/04/07 14:06:46;;;;;;;1.10;0.80;;;;;;;;;;6263932;28;20056;-75
2024/04/07 14:09:47;;;;;;;2.00;0.63;;;;;;;;;;6249216;28;20032;-75
2024/04/07 14:12:47;;;;;;;1.08;0.98;;;;;;;;;;6261355;28;20318;-75
2024/04/07 14:15:47;;;;;;;1.50;1.00;;;;;;;;;;6265104;28;20041;-75
2024/04/07 14:18:48;;;;;;;1.43;1.07;;;;;;;;;;6256965;28;20340;-75
2024/04/07 14:21:50;;;;;;;1.92;1.00;;;;;;;;;;6266398;28;20029;-75
2024/04/07 14:24:50;;;;;;;2.75;0.93;;;;;;;;;;6263319;28;20060;-75
2024/04/07 14:27:50;;;;;;;1.70;1.60;;;;;;;;;;6255455;28;20017;-75
2024/04/07 14:30:50;;;;;;;1.43;1.23;;;;;;;;;;6257865;28;20297;-75
2024/04/07 14:33:51;;;;;;;1.57;1.20;;;;;;;;;;6258633;28;22639;-75
2024/04/07 14:36:51;;;;;;;1.53;1.10;;;;;;;;;;6249047;28;20068;-78
2024/04/07 14:39:52;;;;;;;2.05;1.23;;;;;;;;;;6247389;28;20283;-75
2024/04/07 14:42:52;;;;;;;1.30;0.90;;;;;;;;;;6258806;28;20366;-75
2024/04/07 14:45:53;;;;;;;1.63;1.10;;;;;;;;;;6270553;28;20276;-74
2024/04/07 14:48:53;;;;;;;1.23;1.00;;;;;;;;;;6256656;28;20275;-75
2024/04/07 14:51:53;;;;;;;2.30;1.03;;;;;;;;;;6244427;28;20029;-74
2024/04/07 14:54:54;;;;;;;2.23;1.00;;;;;;;;;;6252665;28;20757;-75
2024/04/07 14:57:56;;;;;;;1.03;0.80;;;;;;;;;;6259968;28;20474;-71
2024/04/07 15:00:56;;;;;;;1.00;0.65;;;;;;;;;;6263731;28;20021;-81
2024/04/07 15:03:57;;;;;;;1.30;0.80;;;;;;;;;;6262396;28;20052;-80
2024/04/07 15:06:57;;;;;;;0.88;0.70;;;;;;;;;;6261827;28;20370;-77
2024/04/07 15:10:01;;;;;;;1.27;1.00;;;;;;;;;;6264035;28;20055;-79
2024/04/07 15:13:01;;;;;;;1.52;0.80;;;;;;;;;;6249972;28;20294;-80
2024/04/07 15:16:04;;;;;;;1.20;0.90;;;;;;;;;;6252837;28;20393;-80
2024/04/07 15:19:05;;;;;;;10.73;5.82;;;;;;;;;;6261154;28;20067;-78
2024/04/07 15:22:05;;;;;;;54.40;28.45;;;;;;;;;;6247823;28;20037;-81
2024/04/07 15:25:05;;;;;;;37.27;22.57;;;;;;;;;;6243681;28;20025;-77
2024/04/07 15:28:05;;;;;;;15.13;12.38;;;;;;;;;;6258163;28;20051;-84
2024/04/07 15:31:06;;;;;;;7.43;6.73;;;;;;;;;;6264552;28;20369;-76
2024/04/07 15:34:06;;;;;;;4.72;4.28;;;;;;;;;;6243041;28;20549;-77
2024/04/07 15:37:07;;;;;;;3.10;2.80;;;;;;;;;;6244043;28;20132;-82
2024/04/07 15:40:07;;;;;;;2.17;1.98;;;;;;;;;;6262237;28;20743;-83
2024/04/07 15:43:08;;;;;;;1.52;1.35;;;;;;;;;;6259009;28;20108;-83
2024/04/07 15:46:08;;;;;;;1.45;0.98;;;;;;;;;;6266581;28;20465;-83
2024/04/07 15:49:08;;;;;;;1.13;1.02;;;;;;;;;;6263245;28;20025;-85
2024/04/07 15:52:09;;;;;;;1.88;0.82;;;;;;;;;;6256793;28;20030;-82
2024/04/07 15:55:09;;;;;;;1.37;0.93;;;;;;;;;;6257554;28;20082;-81
2024/04/07 15:58:09;;;;;;;1.30;1.00;;;;;;;;;;6260155;28;20299;-79
2024/04/07 16:01:10;;;;;;;0.80;0.70;;;;;;;;;;6260694;28;20056;-78
2024/04/07 16:04:10;;;;;;;1.30;0.80;;;;;;;;;;6254691;28;20112;-75
2024/04/07 16:07:10;;;;;;;1.10;0.87;;;;;;;;;;6234349;28;20315;-80
2024/04/07 16:10:10;;;;;;;1.00;0.80;;;;;;;;;;6243239;28;20052;-80
2024/04/07 16:13:11;;;;;;;0.77;0.70;;;;;;;;;;6244022;28;20060;-78
2024/04/07 16:16:11;;;;;;;1.42;0.60;;;;;;;;;;6244397;28;20057;-79
2024/04/07 16:19:11;;;;;;;0.63;0.63;;;;;;;;;;6243837;28;20481;-84
2024/04/07 16:22:12;;;;;;;0.80;0.80;;;;;;;;;;6244063;28;20501;-82
2024/04/07 16:25:12;;;;;;;0.70;0.70;;;;;;;;;;6241387;28;20616;-79
2024/04/07 16:28:12;;;;;;;1.63;0.70;;;;;;;;;;6242327;28;20491;-77
2024/04/07 16:31:13;;;;;;;1.30;0.80;;;;;;;;;;6231982;28;20478;-76
2024/04/07 16:34:13;;;;;;;0.60;0.60;;;;;;;;;;6247120;28;20276;-76
2024/04/07 16:37:14;;;;;;;0.97;0.77;;;;;;;;;;6249859;28;20053;-76
2024/04/07 16:40:15;;;;;;;1.48;0.80;;;;;;;;;;6242146;28;20025;-75
2024/04/07 16:43:15;;;;;;;1.13;0.65;;;;;;;;;;6241747;28;20056;-76
2024/04/07 16:46:16;;;;;;;2.20;2.00;;;;;;;;;;6248441;28;20057;-75
2024/04/07 16:49:16;;;;;;;2.47;2.27;;;;;;;;;;6247778;28;20280;-75
2024/04/07 16:52:17;;;;;;;6.10;4.37;;;;;;;;;;6256536;28;20633;-78
2024/04/07 16:55:19;;;;;;;4.55;3.80;;;;;;;;;;6248637;28;20280;-81
2024/04/07 16:58:19;;;;;;;4.22;2.50;;;;;;;;;;6246602;28;20029;-81
2024/04/07 17:01:20;;;;;;;2.27;1.90;;;;;;;;;;6251238;28;20026;-86
2024/04/07 17:04:20;;;;;;;2.20;1.23;;;;;;;;;;6245486;28;20275;-77
2024/04/07 17:07:21;;;;;;;1.20;1.05;;;;;;;;;;6245605;28;20485;-83
2024/04/07 17:10:21;;;;;;;1.25;0.95;;;;;;;;;;6251527;28;20379;-80
2024/04/07 17:13:25;;;;;;;2.33;0.98;;;;;;;;;;6250286;28;20433;-80
2024/04/07 17:16:26;;;;;;;0.82;0.82;;;;;;;;;;6247397;28;20037;-80
2024/04/07 17:19:26;;;;;;;1.00;0.90;;;;;;;;;;6247369;28;20048;-78
2024/04/07 17:22:26;;;;;;;0.97;0.70;;;;;;;;;;6236636;28;20014;-76
2024/04/07 17:25:27;;;;;;;0.98;0.75;;;;;;;;;;6243165;28;20586;-75
2024/04/07 17:28:27;;;;;;;1.47;0.73;;;;;;;;;;6238394;28;20466;-77
2024/04/07 17:31:27;;;;;;;2.38;1.10;;;;;;;;;;6253284;28;20262;-76
2024/04/07 17:34:28;;;;;;;1.40;0.90;;;;;;;;;;6248415;28;20462;-78
2024/04/07 17:37:28;;;;;;;1.37;1.10;;;;;;;;;;6241599;28;20125;-82
2024/04/07 17:40:28;;;;;;;2.40;1.17;;;;;;;;;;6231039;28;20280;-81
2024/04/07 17:43:29;;;;;;;2.17;0.93;;;;;;;;;;6246841;28;20021;-81
2024/04/07 17:46:29;;;;;;;1.23;0.82;;;;;;;;;;6244365;28;20771;-92
2024/04/07 17:49:29;;;;;;;0.77;0.75;;;;;;;;;;6244501;28;20075;-82
2024/04/07 17:52:30;;;;;;;1.35;0.93;;;;;;;;;;6247476;28;20029;-79
2024/04/07 17:55:30;;;;;;;1.63;1.07;;;;;;;;;;6246420;28;20501;-77
2024/04/07 17:58:30;;;;;;;5.73;1.87;;;;;;;;;;6256397;28;20620;-70
2024/04/07 18:01:30;;;;;;;7.38;5.72;;;;;;;;;;6243223;28;20491;-70
2024/04/07 18:04:31;;;;;;;6.83;3.10;;;;;;;;;;6252460;28;20029;-68
2024/04/07 18:07:31;;;;;;;3.60;2.30;;;;;;;;;;6246565;28;20276;-68